Stations météo

réclame
Mon MeteoGroup
Puebla De D. Rodrigo, Espagne (8271): Température de l'air & dewpoint: 06.12.2017 13:00:00 - 12.12.2017 13:00:00 (CET)Puebla De D. Rodrigo, Espagne (8271): Vitesse du vent & gusts: 06.12.2017 13:00:00 - 12.12.2017 13:00:00 (CET)Puebla De D. Rodrigo, Espagne (8271): Direction du vent: 06.12.2017 13:00:00 - 12.12.2017 13:00:00 (CET)Puebla De D. Rodrigo, Espagne (8271): reduced air pressure: 06.12.2017 13:00:00 - 12.12.2017 13:00:00 (CET)Puebla De D. Rodrigo, Espagne (8271): Quantités de précipitations: 06.12.2017 13:00:00 - 12.12.2017 13:00:00 (CET)
Date & Time tt [°C] td [°C] ff [km/h] ff [knt] fx [km/h] fx [knt] dd ppp [hPa] rr [mm]
12.12.2017 13:00:00 - - - - - - - - -
12.12.2017 12:00:00 5,2 3,8 2 1 11 6 SE 1014,2 0,0
12.12.2017 11:00:00 0,1 -0,3 5 3 10 5 E 1015,3 0,0
12.12.2017 10:00:00 -1,3 -1,7 2 1 6 3 SSE 1015,2 0,0
12.12.2017 09:00:00 -1,6 -2,0 1 0 7 4 WNW 1014,2 0,0
12.12.2017 08:00:00 -1,6 -2,0 1 0 9 5 N 1013,4 0,0
12.12.2017 07:00:00 -0,5 -0,7 5 3 8 5 WNW 1011,9 -
12.12.2017 06:00:00 0,2 0,0 3 1 6 3 SW 1010,2 0,1
12.12.2017 05:00:00 1,0 0,6 1 1 8 5 S 1009,3 0,0
12.12.2017 04:00:00 2,2 1,7 4 2 6 3 W 1007,8 0,0
12.12.2017 03:00:00 2,3 1,7 5 3 12 6 NNW 1006,2 0,0
12.12.2017 02:00:00 3,7 3,0 6 3 10 5 W 1005,7 0,0
12.12.2017 01:00:00 3,9 3,2 6 3 12 6 WSW 1004,6 -
12.12.2017 00:00:00 4,3 2,7 3 2 11 6 SW 1003,2 0,0
11.12.2017 23:00:00 5,4 3,8 3 2 12 7 W 1001,9 0,0
11.12.2017 22:00:00 5,9 4,5 5 3 25 14 WSW 1000,5 0,0
11.12.2017 21:00:00 6,0 4,3 13 7 29 16 WSW 999,5 0,1
11.12.2017 20:00:00 6,3 4,8 9 5 23 12 WSW 998,4 0,0
11.12.2017 19:00:00 5,9 4,5 10 6 25 14 SW 997,6 -
11.12.2017 18:00:00 6,0 3,8 6 3 34 19 WSW 997,2 0,0
11.12.2017 17:00:00 7,8 1,9 14 7 30 16 WSW 995,9 0,1
11.12.2017 16:00:00 8,4 1,7 10 5 29 16 SW 995,6 0,0
11.12.2017 15:00:00 9,2 1,7 14 8 36 20 WSW 994,7 0,0
11.12.2017 14:00:00 8,5 2,7 11 6 32 18 WSW 995,2 0,1
11.12.2017 13:00:00 7,7 3,9 8 4 31 17 WSW 995,3 -
11.12.2017 12:00:00 6,9 3,4 11 6 35 19 WSW 995,7 0,1
11.12.2017 11:00:00 7,7 4,6 13 7 29 16 WSW 995,4 0,0
11.12.2017 10:00:00 5,4 4,3 9 5 29 16 WSW 995,2 0,1
11.12.2017 09:00:00 5,1 4,3 8 4 34 18 WSW 993,4 0,1
11.12.2017 08:00:00 4,8 3,8 13 7 31 17 WSW 992,8 1,3
11.12.2017 07:00:00 4,9 3,9 12 6 32 18 WSW 992,4 -
11.12.2017 06:00:00 5,3 4,3 8 4 38 21 W 992,3 2,8
11.12.2017 05:00:00 - - 1 1 - - WNW - -
11.12.2017 04:00:00 10,4 9,2 31 17 58 31 SSW 989,1 3,6
11.12.2017 03:00:00 10,3 9,0 30 16 62 34 SSW 990,6 1,7
11.12.2017 02:00:00 10,2 8,9 26 14 48 26 SSW 993,8 2,8
11.12.2017 01:00:00 10,1 9,2 24 13 48 26 SSW 995,3 -
11.12.2017 00:00:00 9,7 8,7 23 12 45 25 SW 998,1 0,0
10.12.2017 23:00:00 10,8 7,7 19 10 48 26 SSW 999,8 0,0
10.12.2017 22:00:00 10,9 7,3 15 8 34 18 SW 1001,5 0,0
10.12.2017 21:00:00 10,9 7,7 16 8 31 17 SSW 1002,8 0,0
10.12.2017 20:00:00 10,7 8,1 17 9 34 18 SW 1004,8 0,0
10.12.2017 19:00:00 10,4 8,7 14 8 29 16 SW 1006,1 -
10.12.2017 18:00:00 10,2 9,2 13 7 39 21 WSW 1007,3 0,4
10.12.2017 17:00:00 10,0 9,2 14 8 29 15 SW 1008,2 0,5
10.12.2017 16:00:00 10,0 8,9 9 5 24 13 SW 1009,5 0,2
10.12.2017 15:00:00 9,8 8,9 8 5 27 15 SSW 1011,0 0,0
10.12.2017 14:00:00 10,1 8,9 12 6 24 13 SW 1013,1 0,2
10.12.2017 13:00:00 9,5 8,5 11 6 28 15 SW 1014,1 -
10.12.2017 12:00:00 9,9 7,6 12 6 29 16 SW 1015,2 0,0
10.12.2017 11:00:00 10,2 6,8 12 6 28 15 WSW 1015,8 0,0
10.12.2017 10:00:00 10,3 6,8 9 5 23 12 WSW 1016,8 0,0
10.12.2017 09:00:00 9,6 7,4 8 4 21 11 WSW 1017,3 0,0
10.12.2017 08:00:00 9,6 8,0 7 4 18 10 WSW 1017,3 0,0
10.12.2017 07:00:00 9,6 7,7 8 4 30 16 WSW 1017,9 -
10.12.2017 06:00:00 9,7 7,8 8 4 18 10 WSW 1017,8 0,0
10.12.2017 05:00:00 9,8 8,5 8 4 23 12 WSW 1018,4 0,0
10.12.2017 04:00:00 9,9 8,7 10 6 22 12 WSW 1019,0 0,0
10.12.2017 03:00:00 9,8 8,8 10 5 21 11 WSW 1019,4 0,0
10.12.2017 02:00:00 9,4 8,0 7 4 24 13 WSW 1019,6 0,0
10.12.2017 01:00:00 9,9 8,0 8 5 19 10 WSW 1020,1 -
10.12.2017 00:00:00 9,0 7,3 5 3 17 9 W 1020,8 0,0
09.12.2017 23:00:00 9,3 7,4 1 0 13 7 NW 1020,8 0,0
09.12.2017 22:00:00 10,9 8,0 7 4 12 6 WSW 1020,3 0,0
09.12.2017 21:00:00 10,2 8,3 5 3 10 5 W 1020,3 0,0
09.12.2017 20:00:00 11,1 9,0 1 1 5 3 SW 1019,8 0,0
09.12.2017 19:00:00 11,5 8,9 0 0 3 2 N 1019,7 -
09.12.2017 18:00:00 12,4 8,9 0 0 4 2 N 1019,2 0,0
09.12.2017 17:00:00 13,0 8,5 3 2 16 8 W 1019,5 0,0
09.12.2017 16:00:00 13,1 8,4 8 5 22 12 SW 1019,2 0,0
09.12.2017 15:00:00 13,3 8,1 11 6 19 11 SW 1019,5 0,0
09.12.2017 14:00:00 12,9 8,1 10 5 20 11 SW 1020,3 0,0
09.12.2017 13:00:00 12,8 8,5 6 3 16 9 WSW 1020,7 -
09.12.2017 12:00:00 11,5 8,9 8 5 14 8 SW 1021,5 0,0
09.12.2017 11:00:00 11,3 9,0 4 2 10 5 WSW 1021,7 0,0
09.12.2017 10:00:00 10,3 9,2 1 1 5 3 SSW 1021,2 0,0
09.12.2017 09:00:00 9,9 8,9 1 0 6 3 SW 1021,3 0,0
09.12.2017 08:00:00 9,8 8,9 4 2 9 5 WSW 1020,9 0,0
09.12.2017 07:00:00 9,8 9,0 2 1 7 4 SW 1020,5 -
09.12.2017 06:00:00 9,5 8,5 0 0 4 2 WSW 1021,1 0,0
09.12.2017 05:00:00 9,6 8,4 2 1 5 3 SW 1021,0 0,0
09.12.2017 04:00:00 8,6 6,2 0 0 3 2 N 1021,5 0,0
09.12.2017 03:00:00 9,8 8,8 1 1 8 4 SW 1021,4 0,0
09.12.2017 02:00:00 8,7 5,8 0 0 7 4 SW 1021,9 0,0
09.12.2017 01:00:00 8,8 3,4 1 0 4 2 NNW 1022,3 -
09.12.2017 00:00:00 7,6 1,3 0 0 6 3 N 1023,0 0,0
08.12.2017 23:00:00 8,2 0,9 3 1 4 2 NNW 1023,2 0,0
08.12.2017 22:00:00 7,7 0,4 0 0 6 3 N 1023,5 0,0
08.12.2017 21:00:00 8,1 0,0 4 2 13 7 SW 1023,3 0,0
08.12.2017 20:00:00 8,5 -0,7 8 5 13 7 WSW 1022,9 0,0
08.12.2017 19:00:00 9,0 -1,0 5 3 11 6 WSW 1022,8 -
08.12.2017 18:00:00 10,4 -0,7 5 3 17 9 WSW 1022,6 0,0
08.12.2017 17:00:00 12,2 0,0 7 4 16 9 WSW 1021,9 0,0
08.12.2017 16:00:00 14,7 0,2 6 3 18 10 SW 1021,3 0,0
08.12.2017 15:00:00 13,4 -1,0 5 3 19 10 W 1021,8 0,0
08.12.2017 14:00:00 13,9 -1,4 4 2 31 17 W 1022,5 0,0
08.12.2017 13:00:00 11,6 -1,0 2 1 8 4 ESE 1023,7 -
08.12.2017 12:00:00 8,3 -1,7 2 1 8 4 E 1025,1 0,0
08.12.2017 11:00:00 4,8 -1,7 3 2 8 4 E 1026,9 0,0
08.12.2017 10:00:00 1,8 -1,7 4 2 7 4 ENE 1027,3 0,0
08.12.2017 09:00:00 0,0 -1,0 1 0 4 2 SE 1027,4 0,0
08.12.2017 08:00:00 -0,2 -1,4 1 1 4 2 W 1027,5 0,0
08.12.2017 07:00:00 -0,5 -1,7 0 0 5 3 W 1027,3 -
08.12.2017 06:00:00 0,2 -1,4 0 0 3 2 S 1027,0 0,0
08.12.2017 05:00:00 0,5 -1,0 3 2 6 4 SW 1027,3 0,0
08.12.2017 04:00:00 0,7 -1,0 0 0 5 3 W 1027,5 0,0
08.12.2017 03:00:00 0,3 -1,7 0 0 6 3 E 1027,3 0,0
08.12.2017 02:00:00 0,5 -1,7 0 0 2 1 N 1027,6 0,0
08.12.2017 01:00:00 0,9 -1,7 3 1 6 3 N 1028,3 -
08.12.2017 00:00:00 1,3 -2,0 0 0 4 2 SSW 1028,3 0,0
07.12.2017 23:00:00 1,5 -2,2 0 0 6 3 SSW 1028,0 0,0
07.12.2017 22:00:00 3,0 -2,2 1 1 4 2 NNE 1027,5 0,0
07.12.2017 21:00:00 3,6 -2,7 1 1 7 4 SW 1027,5 0,0
07.12.2017 20:00:00 4,3 -4,5 4 2 9 5 WSW 1027,1 0,0
07.12.2017 19:00:00 6,7 -5,4 6 4 11 6 W 1026,4 -
07.12.2017 18:00:00 9,0 -5,4 3 2 6 4 W 1025,6 0,0
07.12.2017 17:00:00 13,1 -3,3 0 0 5 3 SE 1024,4 0,0
07.12.2017 16:00:00 11,8 -3,6 2 1 7 4 E 1024,7 0,0
07.12.2017 15:00:00 10,3 -2,5 1 1 7 4 ESE 1025,4 0,0
07.12.2017 14:00:00 6,7 -2,5 1 1 6 4 E 1026,9 0,0
07.12.2017 13:00:00 3,7 -2,5 1 1 6 3 E 1028,4 -
07.12.2017 12:00:00 1,3 -3,0 1 1 5 3 ESE 1029,6 0,0
07.12.2017 11:00:00 -1,1 -3,9 4 2 6 4 E 1030,7 0,0
07.12.2017 10:00:00 -0,4 -3,6 1 1 5 3 E 1030,6 0,0
07.12.2017 09:00:00 -4,6 -5,4 0 0 4 2 N 1031,2 0,0
07.12.2017 08:00:00 -5,2 -5,7 3 1 6 3 WSW 1030,8 0,0
07.12.2017 07:00:00 -5,2 -5,7 0 0 5 3 S 1030,4 -
07.12.2017 06:00:00 -4,7 -5,4 0 0 7 4 WNW 1030,2 0,0
07.12.2017 05:00:00 -4,3 -5,1 0 0 0 0 N 1030,1 0,0
07.12.2017 04:00:00 -3,7 -4,5 0 0 0 0 N 1030,4 0,0
07.12.2017 03:00:00 -3,9 -4,8 0 0 0 0 N 1030,6 0,0
07.12.2017 02:00:00 -2,7 -3,9 0 0 0 0 N 1030,4 0,0
07.12.2017 01:00:00 -1,9 -3,9 0 0 5 3 N 1030,6 -
07.12.2017 00:00:00 -1,8 -4,5 0 0 2 1 SSE 1030,8 0,0
06.12.2017 23:00:00 -0,7 -4,5 0 0 4 2 N 1030,1 0,0
06.12.2017 22:00:00 0,4 -4,8 0 0 1 1 N 1030,0 0,0
06.12.2017 21:00:00 1,6 -6,0 0 0 4 2 N 1029,3 0,0
06.12.2017 20:00:00 4,0 -6,7 1 0 3 2 SW 1028,4 0,0
06.12.2017 19:00:00 6,2 -7,1 0 0 3 2 N 1027,4 -
06.12.2017 18:00:00 9,1 -7,1 0 0 2 1 S 1026,6 0,0
06.12.2017 17:00:00 12,7 -5,7 0 0 5 3 N 1025,8 0,0
06.12.2017 16:00:00 12,6 -5,4 3 1 6 4 ENE 1025,8 0,0
06.12.2017 15:00:00 11,8 -5,4 3 2 8 5 ENE 1026,4 0,0
06.12.2017 14:00:00 10,3 -3,9 4 2 9 5 E 1027,5 0,0
06.12.2017 13:00:00 6,1 -4,5 4 2 10 5 NE 1029,4 -

tt = Température de l'air
td = dewpoint
ff = Vitesse du vent
fx = gusts
dd = Direction du vent
ppp = reduced air pressure
rr = Quantités de précipitations

stations d'obs. à proximité